createdAt,value
2018-07-14T00:01:51.076Z,57.34
2018-07-14T00:04:23.322Z,56.53
2018-07-14T00:06:52.952Z,56.88
2018-07-14T00:09:22.719Z,57.65
2018-07-14T00:11:51.990Z,58.23
2018-07-14T00:14:21.052Z,58.08
2018-07-14T00:16:50.195Z,58.00
2018-07-14T00:19:20.419Z,57.96
2018-07-14T00:21:49.273Z,57.90
2018-07-14T00:24:18.201Z,57.92
2018-07-14T00:26:47.021Z,57.87
2018-07-14T00:29:15.831Z,58.42
2018-07-14T00:31:44.719Z,58.64
2018-07-14T00:34:14.079Z,58.68
2018-07-14T00:36:42.815Z,59.21
2018-07-14T00:39:11.551Z,59.33
2018-07-14T00:41:40.374Z,60.04
2018-07-14T00:44:09.200Z,59.60
2018-07-14T00:46:38.223Z,60.31
2018-07-14T00:49:07.055Z,60.75
2018-07-14T00:51:35.834Z,61.20
2018-07-14T00:54:04.740Z,60.43
2018-07-14T00:56:34.182Z,61.23
2018-07-14T00:59:02.916Z,61.14
2018-07-14T01:01:32.858Z,62.61
2018-07-14T01:04:02.352Z,62.59
2018-07-14T01:06:31.998Z,62.90
2018-07-14T01:09:01.283Z,62.33
2018-07-14T01:11:30.073Z,62.13
2018-07-14T01:13:58.832Z,61.75
2018-07-14T01:16:27.662Z,62.78
2018-07-14T01:18:56.859Z,62.02
2018-07-14T01:21:25.798Z,62.49
2018-07-14T01:23:54.548Z,63.60
2018-07-14T01:26:23.636Z,64.92
2018-07-14T01:28:52.754Z,65.63
2018-07-14T01:31:21.930Z,64.93
2018-07-14T01:33:51.945Z,65.53
2018-07-14T01:36:20.956Z,64.88
2018-07-14T01:38:49.779Z,65.44
2018-07-14T01:41:18.624Z,65.76
2018-07-14T01:43:47.534Z,65.35
2018-07-14T01:46:16.440Z,66.39
2018-07-14T01:48:45.212Z,64.78
2018-07-14T01:51:13.973Z,64.87
2018-07-14T01:53:42.714Z,64.72
2018-07-14T01:56:12.414Z,65.18
2018-07-14T01:58:41.147Z,64.39
2018-07-14T02:01:10.951Z,64.69
2018-07-14T02:03:40.363Z,64.83
2018-07-14T02:06:09.822Z,64.60
2018-07-14T02:08:38.594Z,64.35
2018-07-14T02:11:07.867Z,64.94
2018-07-14T02:13:36.633Z,64.65
2018-07-14T02:16:05.434Z,65.54
2018-07-14T02:18:34.786Z,64.79
2018-07-14T02:21:03.589Z,64.95
2018-07-14T02:23:32.414Z,64.54
2018-07-14T02:26:01.245Z,64.89
2018-07-14T02:28:30.055Z,65.08
2018-07-14T02:30:59.082Z,65.64
2018-07-14T02:33:28.512Z,64.36
2018-07-14T02:35:57.323Z,65.09
2018-07-14T02:38:26.211Z,65.05
2018-07-14T02:40:55.223Z,65.82
2018-07-14T02:43:24.600Z,66.40
2018-07-14T02:45:54.261Z,67.10
2018-07-14T02:48:23.509Z,67.72
2018-07-14T02:50:52.945Z,67.13
2018-07-14T02:53:22.085Z,67.53
2018-07-14T02:55:52.089Z,68.51
2018-07-14T02:58:21.135Z,68.41
2018-07-14T03:00:50.528Z,67.21
2018-07-14T03:03:20.241Z,65.85
2018-07-14T03:05:51.148Z,64.17
2018-07-14T03:08:20.946Z,63.23
2018-07-14T03:10:49.829Z,61.42
2018-07-14T03:13:18.555Z,60.40
2018-07-14T03:15:47.370Z,58.44
2018-07-14T03:18:16.114Z,57.61
2018-07-14T03:20:45.576Z,56.48
2018-07-14T03:24:16.813Z,55.49
2018-07-14T03:26:45.613Z,53.37
2018-07-14T03:29:14.356Z,53.47
2018-07-14T03:31:43.282Z,52.43
2018-07-14T03:34:12.513Z,52.30
2018-07-14T03:36:41.314Z,52.28
2018-07-14T03:39:10.710Z,52.69
2018-07-14T03:41:40.326Z,52.39
2018-07-14T03:44:10.716Z,51.41
2018-07-14T03:46:39.462Z,51.39
2018-07-14T03:49:08.240Z,51.17
2018-07-14T03:51:37.034Z,51.91
2018-07-14T03:54:06.447Z,51.49
2018-07-14T03:56:36.251Z,50.33
2018-07-14T03:59:05.323Z,50.05
2018-07-14T04:02:37.179Z,49.91
2018-07-14T04:05:07.008Z,49.38
2018-07-14T04:07:36.338Z,48.49
2018-07-14T04:10:07.192Z,48.11
2018-07-14T04:12:35.999Z,49.31
2018-07-14T04:15:04.813Z,49.89
2018-07-14T04:17:33.562Z,50.38
2018-07-14T04:20:03.528Z,51.64
2018-07-14T04:22:32.467Z,52.36
2018-07-14T04:25:01.308Z,53.65
2018-07-14T04:27:30.130Z,55.38
2018-07-14T04:29:58.902Z,57.40
2018-07-14T04:32:27.809Z,58.31
2018-07-14T04:34:57.295Z,58.19
2018-07-14T04:37:26.090Z,59.24
2018-07-14T04:39:55.254Z,58.98
2018-07-14T04:42:25.320Z,59.35
2018-07-14T04:44:55.420Z,58.54
2018-07-14T04:47:24.616Z,58.50
2018-07-14T04:49:54.407Z,59.34
2018-07-14T04:52:23.503Z,58.24
2018-07-14T04:54:53.734Z,59.34
2018-07-14T04:57:23.439Z,58.62
2018-07-14T04:59:53.187Z,59.08
2018-07-14T05:02:22.905Z,58.45
2018-07-14T05:04:51.931Z,59.51
2018-07-14T05:07:21.651Z,59.94
2018-07-14T05:09:51.220Z,59.42
2018-07-14T05:12:20.314Z,59.92
2018-07-14T05:14:49.046Z,59.95
2018-07-14T05:17:17.973Z,60.58
2018-07-14T05:19:47.166Z,60.61
2018-07-14T05:22:15.992Z,61.44
2018-07-14T05:24:44.788Z,61.36
2018-07-14T05:27:13.692Z,61.29
2018-07-14T05:29:42.492Z,61.25
2018-07-14T05:32:11.370Z,61.35
2018-07-14T05:34:41.741Z,61.80
2018-07-14T05:37:10.511Z,61.88
2018-07-14T05:39:39.287Z,60.85
2018-07-14T05:42:08.970Z,60.54
2018-07-14T05:44:38.431Z,61.18
2018-07-14T05:47:07.183Z,60.04
2018-07-14T05:49:35.972Z,59.82
2018-07-14T05:52:04.912Z,61.11
2018-07-14T05:54:34.130Z,59.79
2018-07-14T05:57:03.994Z,59.21
2018-07-14T05:59:32.783Z,59.01
2018-07-14T06:02:02.943Z,58.72
2018-07-14T06:04:31.738Z,58.70
2018-07-14T06:07:01.083Z,59.37
2018-07-14T06:09:30.446Z,59.07
2018-07-14T06:11:59.231Z,59.81
2018-07-14T06:14:28.612Z,59.58
2018-07-14T06:16:57.454Z,59.22
2018-07-14T06:19:27.813Z,58.12
2018-07-14T06:21:56.917Z,57.87
2018-07-14T06:24:26.064Z,57.50
2018-07-14T06:26:55.275Z,57.48
2018-07-14T06:29:24.464Z,58.17
2018-07-14T06:31:54.511Z,57.31
2018-07-14T06:34:23.918Z,57.50
2018-07-14T06:36:52.850Z,57.53
2018-07-14T06:39:22.428Z,57.28
2018-07-14T06:41:51.734Z,57.14
2018-07-14T06:44:21.362Z,56.95
2018-07-14T06:46:50.181Z,56.53
2018-07-14T06:49:19.098Z,55.52
2018-07-14T06:51:47.912Z,55.18
2018-07-14T06:54:17.664Z,56.02
2018-07-14T06:56:46.978Z,55.88
2018-07-14T06:59:15.760Z,54.90
2018-07-14T07:01:45.725Z,54.34
2018-07-14T07:04:14.976Z,53.93
2018-07-14T07:06:44.480Z,54.06
2018-07-14T07:09:13.986Z,53.86
2018-07-14T07:11:42.957Z,53.53
2018-07-14T07:14:11.736Z,52.15
2018-07-14T07:16:40.563Z,52.83
2018-07-14T07:19:10.013Z,52.65
2018-07-14T07:21:38.866Z,52.87
2018-07-14T07:24:07.713Z,53.15
2018-07-14T07:26:36.538Z,52.11
2018-07-14T07:29:05.347Z,52.79
2018-07-14T07:31:34.238Z,52.46
2018-07-14T07:34:04.297Z,51.78
2018-07-14T07:36:33.034Z,51.99
2018-07-14T07:39:02.007Z,52.32
2018-07-14T07:41:31.587Z,51.31
2018-07-14T07:44:01.388Z,51.60
2018-07-14T07:46:30.190Z,51.32
2018-07-14T07:48:58.971Z,50.50
2018-07-14T07:51:27.850Z,51.49
2018-07-14T07:55:00.386Z,51.02
2018-07-14T07:57:29.923Z,50.83
2018-07-14T07:59:58.749Z,50.23
2018-07-14T08:02:28.319Z,50.25
2018-07-14T08:04:57.855Z,48.47
2018-07-14T08:07:28.012Z,48.65
2018-07-14T08:09:57.020Z,48.53
2018-07-14T08:12:26.646Z,49.29
2018-07-14T08:14:55.763Z,49.38
2018-07-14T08:17:24.905Z,48.11
2018-07-14T08:19:54.713Z,48.62
2018-07-14T08:22:23.681Z,47.81
2018-07-14T08:24:52.513Z,47.55
2018-07-14T08:27:21.325Z,47.73
2018-07-14T08:29:50.069Z,47.07
2018-07-14T08:32:18.930Z,46.73
2018-07-14T08:34:48.502Z,47.37
2018-07-14T08:37:17.276Z,46.36
2018-07-14T08:39:46.875Z,45.71
2018-07-14T08:42:16.174Z,46.41
2018-07-14T08:44:45.725Z,47.14
2018-07-14T08:47:14.549Z,45.60
2018-07-14T08:49:43.291Z,45.82
2018-07-14T08:52:12.059Z,46.07
2018-07-14T08:54:42.061Z,45.18
2018-07-14T08:57:11.817Z,46.01
2018-07-14T08:59:40.566Z,46.10
2018-07-14T09:02:10.079Z,46.03
2018-07-14T09:04:38.885Z,45.70
2018-07-14T09:07:08.848Z,46.38
2018-07-14T09:09:38.394Z,45.25
2018-07-14T09:12:07.189Z,46.01
2018-07-14T09:14:35.938Z,44.83
2018-07-14T09:17:04.785Z,44.41
2018-07-14T09:19:33.541Z,44.80
2018-07-14T09:22:02.376Z,45.31
2018-07-14T09:24:31.178Z,44.71
2018-07-14T09:26:59.977Z,44.23
2018-07-14T09:29:28.735Z,43.95
2018-07-14T09:31:57.563Z,43.96
2018-07-14T09:34:27.581Z,43.71
2018-07-14T09:36:57.242Z,44.31
2018-07-14T09:39:26.691Z,43.32
2018-07-14T09:41:56.849Z,41.95
2018-07-14T09:44:26.933Z,42.16
2018-07-14T09:47:27.155Z,40.70
2018-07-14T09:49:56.587Z,41.27
2018-07-14T09:52:25.782Z,42.02
2018-07-14T09:54:56.127Z,40.40
2018-07-14T09:57:26.820Z,40.72
2018-07-14T09:59:56.446Z,40.93
2018-07-14T10:02:26.299Z,40.99
2018-07-14T10:04:56.366Z,39.82
2018-07-14T10:07:25.579Z,40.07
2018-07-14T10:09:55.896Z,38.60
2018-07-14T10:12:24.907Z,39.40
2018-07-14T10:14:53.713Z,40.25
2018-07-14T10:17:22.735Z,38.62
2018-07-14T10:19:52.370Z,38.96
2018-07-14T10:22:21.188Z,38.05
2018-07-14T10:24:49.934Z,36.63
2018-07-14T10:27:18.720Z,38.04
2018-07-14T10:29:47.434Z,38.13
2018-07-14T10:32:16.304Z,38.87
2018-07-14T10:34:45.864Z,37.67
2018-07-14T10:37:15.360Z,37.41
2018-07-14T10:39:44.164Z,37.27
2018-07-14T10:42:13.966Z,36.79
2018-07-14T10:44:43.734Z,37.46
2018-07-14T10:47:12.480Z,37.22
2018-07-14T10:49:41.256Z,36.24
2018-07-14T10:52:10.667Z,35.63
2018-07-14T10:54:40.120Z,35.87
2018-07-14T10:57:10.092Z,35.20
2018-07-14T10:59:38.909Z,34.50
2018-07-14T11:02:08.519Z,33.82
2018-07-14T11:04:37.305Z,34.15
2018-07-14T11:07:06.682Z,34.75
2018-07-14T11:09:36.326Z,35.07
2018-07-14T11:12:05.176Z,33.97
2018-07-14T11:14:33.945Z,33.97
2018-07-14T11:17:02.721Z,33.98
2018-07-14T11:19:31.501Z,33.88
2018-07-14T11:22:00.355Z,33.91
2018-07-14T11:24:29.366Z,33.69
2018-07-14T11:26:58.160Z,34.07
2018-07-14T11:29:27.181Z,34.30
2018-07-14T11:31:56.449Z,32.88
2018-07-14T11:34:26.253Z,33.45
2018-07-14T11:36:55.450Z,32.50
2018-07-14T11:39:24.517Z,32.70
2018-07-14T11:41:54.130Z,32.97
2018-07-14T11:44:23.591Z,33.04
2018-07-14T11:46:52.387Z,33.08
2018-07-14T11:49:21.226Z,33.52
2018-07-14T11:51:50.601Z,33.38
2018-07-14T11:54:19.411Z,32.42
2018-07-14T11:56:49.309Z,33.08
2018-07-14T11:59:18.135Z,32.98
2018-07-14T12:01:47.750Z,32.13
2018-07-14T12:04:17.322Z,31.94
2018-07-14T12:06:47.042Z,31.49
2018-07-14T12:09:16.696Z,32.23
2018-07-14T12:11:45.497Z,31.21
2018-07-14T12:14:14.227Z,31.47
2018-07-14T12:16:43.062Z,31.72
2018-07-14T12:19:11.822Z,32.07
2018-07-14T12:21:41.494Z,31.73
2018-07-14T12:24:10.269Z,29.46
2018-07-14T12:26:39.117Z,29.92
2018-07-14T12:29:08.058Z,31.02
2018-07-14T12:31:36.903Z,29.90
2018-07-14T12:34:06.494Z,29.29
2018-07-14T12:36:35.347Z,30.00
2018-07-14T12:39:04.342Z,30.12
2018-07-14T12:41:33.964Z,30.18
2018-07-14T12:44:03.323Z,30.55
2018-07-14T12:46:32.074Z,29.94
2018-07-14T12:49:00.970Z,29.70
2018-07-14T12:51:30.599Z,29.65
2018-07-14T12:53:59.686Z,30.19
2018-07-14T12:56:29.214Z,30.08
2018-07-14T12:58:58.040Z,29.84
2018-07-14T13:01:27.056Z,30.05
2018-07-14T13:03:56.663Z,29.49
2018-07-14T13:06:27.096Z,30.21
2018-07-14T13:08:56.798Z,30.09
2018-07-14T13:11:25.813Z,29.14
2018-07-14T13:13:54.925Z,29.97
2018-07-14T13:16:23.827Z,29.82
2018-07-14T13:18:52.767Z,29.81
2018-07-14T13:21:22.347Z,29.94
2018-07-14T13:23:51.122Z,30.42
2018-07-14T13:26:20.734Z,30.29
2018-07-14T13:28:49.669Z,28.63
2018-07-14T13:31:18.430Z,28.89
2018-07-14T13:33:47.719Z,28.61
2018-07-14T13:36:16.545Z,28.91
2018-07-14T13:38:51.614Z,29.47
2018-07-14T13:41:15.056Z,28.32
2018-07-14T13:43:45.309Z,29.75
2018-07-14T13:46:14.067Z,28.69
2018-07-14T13:48:43.141Z,28.19
2018-07-14T13:51:12.462Z,28.72
2018-07-14T13:53:41.327Z,28.05
2018-07-14T13:56:11.047Z,28.59
2018-07-14T13:58:40.555Z,28.89
2018-07-14T14:01:09.322Z,27.87
2018-07-14T14:03:38.760Z,28.07
2018-07-14T14:06:08.134Z,28.79
2018-07-14T14:08:38.367Z,28.79
2018-07-14T14:11:07.303Z,28.73
2018-07-14T14:13:36.310Z,28.13
2018-07-14T14:16:05.282Z,28.67
2018-07-14T14:18:34.096Z,28.42
2018-07-14T14:21:03.871Z,27.55
2018-07-14T14:23:32.818Z,28.28
2018-07-14T14:26:01.537Z,27.86
2018-07-14T14:28:30.388Z,27.05
2018-07-14T14:30:59.218Z,27.44
2018-07-14T14:33:29.149Z,27.92
2018-07-14T14:35:57.971Z,26.98
2018-07-14T14:38:27.320Z,27.38
2018-07-14T14:40:56.419Z,27.88
2018-07-14T14:43:26.351Z,27.58
2018-07-14T14:45:56.224Z,27.45
2018-07-14T14:48:25.833Z,27.98
2018-07-14T14:50:54.664Z,27.59
2018-07-14T14:53:24.580Z,26.96
2018-07-14T14:55:54.157Z,27.26
2018-07-14T14:58:22.960Z,27.14
2018-07-14T15:00:51.712Z,27.46
2018-07-14T15:03:21.038Z,26.83
2018-07-14T15:05:50.798Z,26.64
2018-07-14T15:08:20.254Z,27.77
2018-07-14T15:10:49.174Z,27.59
2018-07-14T15:13:17.945Z,27.08
2018-07-14T15:15:46.750Z,27.07
2018-07-14T15:18:15.601Z,27.09
2018-07-14T15:20:45.346Z,26.78
2018-07-14T15:23:14.102Z,26.91
2018-07-14T15:25:43.084Z,27.98
2018-07-14T15:28:11.920Z,26.28
2018-07-14T15:30:40.730Z,27.65
2018-07-14T15:33:09.985Z,26.96
2018-07-14T15:35:39.191Z,27.11
2018-07-14T15:38:08.696Z,26.17
2018-07-14T15:40:39.074Z,26.43
2018-07-14T15:43:08.446Z,25.59
2018-07-14T15:45:38.141Z,24.87
2018-07-14T15:49:09.890Z,24.23
2018-07-14T15:51:38.744Z,23.72
2018-07-14T15:54:08.352Z,22.93
2018-07-14T15:56:37.596Z,22.77
2018-07-14T15:59:06.423Z,22.20
2018-07-14T16:01:36.458Z,22.10
2018-07-14T16:04:06.302Z,22.72
2018-07-14T16:06:35.573Z,21.97
2018-07-14T16:09:05.639Z,22.09
2018-07-14T16:11:34.591Z,22.34
2018-07-14T16:14:03.394Z,22.27
2018-07-14T16:16:32.194Z,22.23
2018-07-14T16:19:01.957Z,22.22
2018-07-14T16:21:31.286Z,22.16
2018-07-14T16:24:00.028Z,22.26
2018-07-14T16:26:28.814Z,22.56
2018-07-14T16:28:57.964Z,22.15
2018-07-14T16:31:27.038Z,21.84
2018-07-14T16:33:56.631Z,21.20
2018-07-14T16:36:25.573Z,20.80
2018-07-14T16:38:54.347Z,20.97
2018-07-14T16:41:23.217Z,21.22
2018-07-14T16:43:52.550Z,19.90
2018-07-14T16:46:21.979Z,20.38
2018-07-14T16:48:51.628Z,20.66
2018-07-14T16:51:20.472Z,20.79
2018-07-14T16:53:49.946Z,20.65
2018-07-14T16:56:19.371Z,20.92
2018-07-14T16:58:48.805Z,20.94
2018-07-14T17:01:17.694Z,20.72
2018-07-14T17:03:47.024Z,20.32
2018-07-14T17:06:16.430Z,21.25
2018-07-14T17:08:46.047Z,20.01
2018-07-14T17:11:14.840Z,20.33
2018-07-14T17:13:43.654Z,20.13
2018-07-14T17:16:12.553Z,20.59
2018-07-14T17:18:41.429Z,20.43
2018-07-14T17:21:10.974Z,21.09
2018-07-14T17:23:39.968Z,21.09
2018-07-14T17:26:08.713Z,21.54
2018-07-14T17:28:37.542Z,21.35
2018-07-14T17:31:06.306Z,21.40
2018-07-14T17:33:36.017Z,21.30
2018-07-14T17:36:04.831Z,21.33
2018-07-14T17:38:34.612Z,21.47
2018-07-14T17:41:03.463Z,21.34
2018-07-14T17:43:33.766Z,21.64
2018-07-14T17:46:02.555Z,21.82
2018-07-14T17:48:31.313Z,22.41
2018-07-14T17:51:00.709Z,22.09
2018-07-14T17:53:30.312Z,22.52
2018-07-14T17:55:59.598Z,22.49
2018-07-14T17:58:28.918Z,23.07
2018-07-14T18:00:58.044Z,23.54
2018-07-14T18:03:28.336Z,24.09
2018-07-14T18:05:58.446Z,24.20
2018-07-14T18:08:28.840Z,24.74
2018-07-14T18:10:57.864Z,25.87
2018-07-14T18:13:28.056Z,25.16
2018-07-14T18:15:57.125Z,27.35
2018-07-14T18:18:26.314Z,26.52
2018-07-14T18:20:55.930Z,27.54
2018-07-14T18:23:25.303Z,27.43
2018-07-14T18:25:54.066Z,28.00
2018-07-14T18:28:22.979Z,27.45
2018-07-14T18:30:51.845Z,27.77
2018-07-14T18:33:20.890Z,27.77
2018-07-14T18:35:50.355Z,29.00
2018-07-14T18:38:19.188Z,30.44
2018-07-14T18:40:47.992Z,30.24
2018-07-14T18:43:17.614Z,30.60
2018-07-14T18:45:48.133Z,31.69
2018-07-14T18:48:16.895Z,32.12
2018-07-14T18:50:46.559Z,32.00
2018-07-14T18:53:15.911Z,33.41
2018-07-14T18:55:45.488Z,32.92
2018-07-14T18:58:14.941Z,33.16
2018-07-14T19:00:43.842Z,33.97
2018-07-14T19:03:13.185Z,34.22
2018-07-14T19:05:42.631Z,35.83
2018-07-14T19:08:12.167Z,35.53
2018-07-14T19:10:40.989Z,35.97
2018-07-14T19:13:09.821Z,35.93
2018-07-14T19:15:38.627Z,36.17
2018-07-14T19:18:07.426Z,37.09
2018-07-14T19:20:37.322Z,37.44
2018-07-14T19:23:06.179Z,37.43
2018-07-14T19:25:34.913Z,38.02
2018-07-14T19:28:03.894Z,37.87
2018-07-14T19:30:32.660Z,38.01
2018-07-14T19:33:02.119Z,38.72
2018-07-14T19:35:31.522Z,38.88
2018-07-14T19:38:00.275Z,39.95
2018-07-14T19:40:29.091Z,39.89
2018-07-14T19:42:58.536Z,40.02
2018-07-14T19:45:28.489Z,41.28
2018-07-14T19:47:57.699Z,41.55
2018-07-14T19:50:27.880Z,40.98
2018-07-14T19:52:57.722Z,42.25
2018-07-14T19:55:27.201Z,42.01
2018-07-14T19:57:57.000Z,42.50
2018-07-14T20:00:26.034Z,42.22
2018-07-14T20:02:56.771Z,42.61
2018-07-14T20:05:26.363Z,43.06
2018-07-14T20:07:55.819Z,43.63
2018-07-14T20:10:24.693Z,44.81
2018-07-14T20:12:53.454Z,45.21
2018-07-14T20:15:22.713Z,44.83
2018-07-14T20:17:51.484Z,45.93
2018-07-14T20:20:20.768Z,45.01
2018-07-14T20:22:49.505Z,45.63
2018-07-14T20:25:19.038Z,45.69
2018-07-14T20:27:47.789Z,45.83
2018-07-14T20:30:16.690Z,46.81
2018-07-14T20:32:45.580Z,45.91
2018-07-14T20:35:15.085Z,47.18
2018-07-14T20:37:43.873Z,46.99
2018-07-14T20:40:13.092Z,46.71
2018-07-14T20:42:42.392Z,47.89
2018-07-14T20:45:11.626Z,47.52
2018-07-14T20:47:40.363Z,48.04
2018-07-14T20:50:09.390Z,47.96
2018-07-14T20:52:38.722Z,47.40
2018-07-14T20:55:08.189Z,48.47
2018-07-14T20:57:37.487Z,48.78
2018-07-14T21:00:06.543Z,48.77
2018-07-14T21:02:35.999Z,49.33
2018-07-14T21:05:05.487Z,48.42
2018-07-14T21:07:35.174Z,49.28
2018-07-14T21:10:04.020Z,49.36
2018-07-14T21:12:32.987Z,50.03
2018-07-14T21:15:01.664Z,49.79
2018-07-14T21:17:30.410Z,50.23
2018-07-14T21:19:59.373Z,50.82
2018-07-14T21:22:28.278Z,49.82
2018-07-14T21:24:57.586Z,50.55
2018-07-14T21:27:26.725Z,51.40
2018-07-14T21:29:55.973Z,50.80
2018-07-14T21:32:25.540Z,51.66
2018-07-14T21:34:55.683Z,51.30
2018-07-14T21:37:24.488Z,51.84
2018-07-14T21:39:54.087Z,51.81
2018-07-14T21:42:24.409Z,51.60
2018-07-14T21:44:53.835Z,51.81
2018-07-14T21:47:22.571Z,51.76
2018-07-14T21:49:52.990Z,52.14
2018-07-14T21:52:21.755Z,53.66
2018-07-14T21:54:50.962Z,53.31
2018-07-14T21:57:20.668Z,52.62
2018-07-14T21:59:49.443Z,52.96
2018-07-14T22:02:19.083Z,53.16
2018-07-14T22:04:48.678Z,54.26
2018-07-14T22:07:18.520Z,54.18
2018-07-14T22:09:47.946Z,54.94
2018-07-14T22:12:16.708Z,55.04
2018-07-14T22:14:45.547Z,55.20
2018-07-14T22:17:14.378Z,55.83
2018-07-14T22:19:43.166Z,56.44
2018-07-14T22:22:12.395Z,55.81
2018-07-14T22:24:42.254Z,55.71
2018-07-14T22:27:11.037Z,56.69
2018-07-14T22:29:39.825Z,57.06
2018-07-14T22:32:08.647Z,56.79
2018-07-14T22:34:38.238Z,56.99
2018-07-14T22:37:07.625Z,56.89
2018-07-14T22:39:36.398Z,57.90
2018-07-14T22:42:05.821Z,58.20
2018-07-14T22:44:35.281Z,57.56
2018-07-14T22:47:04.033Z,57.76
2018-07-14T22:49:32.778Z,57.98
2018-07-14T22:52:01.579Z,58.42
2018-07-14T22:54:30.938Z,57.91
2018-07-14T22:57:00.188Z,58.13
2018-07-14T22:59:29.018Z,58.97
2018-07-14T23:01:59.438Z,59.02
2018-07-14T23:04:28.922Z,59.27
2018-07-14T23:06:58.540Z,59.30
2018-07-14T23:09:29.073Z,59.90
2018-07-14T23:11:58.171Z,59.69
2018-07-14T23:14:27.251Z,60.21
2018-07-14T23:16:57.123Z,59.72
2018-07-14T23:19:26.226Z,60.80
2018-07-14T23:21:55.571Z,60.80
2018-07-14T23:24:25.444Z,59.94
2018-07-14T23:26:54.605Z,60.78
2018-07-14T23:29:23.444Z,59.73
2018-07-14T23:31:52.201Z,61.17
2018-07-14T23:34:21.781Z,61.42
2018-07-14T23:36:50.636Z,61.10
2018-07-14T23:39:19.685Z,60.96
2018-07-14T23:41:49.103Z,61.85
2018-07-14T23:44:18.666Z,62.41
2018-07-14T23:46:47.424Z,62.66
2018-07-14T23:49:16.186Z,63.67
2018-07-14T23:51:44.938Z,64.31
2018-07-14T23:54:14.212Z,64.60
2018-07-14T23:56:43.638Z,65.23
2018-07-14T23:59:12.410Z,65.35
